createdAt,value
2022-11-20T00:03:33.057Z,92.00
2022-11-20T00:06:08.496Z,92.00
2022-11-20T00:08:36.871Z,92.00
2022-11-20T00:11:16.812Z,92.00
2022-11-20T00:13:51.554Z,92.00
2022-11-20T00:16:35.649Z,92.10
2022-11-20T00:19:11.557Z,92.10
2022-11-20T00:24:55.641Z,92.20
2022-11-20T00:27:34.357Z,92.20
2022-11-20T00:33:18.361Z,92.30
2022-11-20T00:41:41.318Z,92.40
2022-11-20T00:44:22.016Z,92.40
2022-11-20T00:46:58.847Z,92.40
2022-11-20T00:49:54.509Z,92.40
2022-11-20T00:52:24.532Z,92.40
2022-11-20T00:55:09.392Z,92.40
2022-11-20T00:57:42.261Z,92.40
2022-11-20T01:00:12.502Z,92.50
2022-11-20T01:02:39.965Z,92.50
2022-11-20T01:05:15.372Z,92.50
2022-11-20T01:07:46.023Z,92.60
2022-11-20T01:10:28.600Z,92.60
2022-11-20T01:13:20.232Z,92.50
2022-11-20T01:15:55.604Z,92.50
2022-11-20T01:18:32.266Z,92.50
2022-11-20T01:21:09.252Z,92.50
2022-11-20T01:23:38.494Z,92.50
2022-11-20T01:26:10.114Z,92.50
2022-11-20T01:28:41.090Z,92.50
2022-11-20T01:31:25.565Z,92.50
2022-11-20T01:34:24.019Z,92.50
2022-11-20T01:36:58.297Z,92.50
2022-11-20T01:39:27.701Z,92.50
2022-11-20T01:42:24.374Z,92.50
2022-11-20T01:45:00.571Z,92.50
2022-11-20T01:47:44.957Z,92.50
2022-11-20T01:50:28.448Z,92.50
2022-11-20T01:53:15.138Z,92.50
2022-11-20T01:55:57.093Z,92.40
2022-11-20T01:58:37.689Z,92.40
2022-11-20T02:01:08.885Z,92.40
2022-11-20T02:03:45.887Z,92.50
2022-11-20T02:06:27.054Z,92.50
2022-11-20T02:08:58.750Z,92.50
2022-11-20T02:11:26.185Z,92.50
2022-11-20T02:14:17.044Z,92.50
2022-11-20T02:17:00.631Z,92.50
2022-11-20T02:19:35.482Z,92.60
2022-11-20T02:22:59.361Z,92.60
2022-11-20T02:25:37.214Z,92.60
2022-11-20T02:28:10.532Z,92.60
2022-11-20T02:33:34.316Z,92.90
2022-11-20T02:36:14.408Z,92.40
2022-11-20T02:38:44.966Z,92.20
2022-11-20T02:41:24.509Z,92.00
2022-11-20T02:44:16.037Z,92.10
2022-11-20T02:47:07.789Z,92.30
2022-11-20T02:50:01.753Z,92.40
2022-11-20T02:53:05.189Z,92.80
2022-11-20T02:56:04.569Z,92.60
2022-11-20T02:58:39.606Z,92.70
2022-11-20T03:01:17.630Z,92.80
2022-11-20T03:06:49.300Z,92.80
2022-11-20T03:09:29.097Z,92.80
2022-11-20T03:12:17.985Z,92.90
2022-11-20T03:14:56.438Z,92.90
2022-11-20T03:17:26.100Z,92.90
2022-11-20T03:20:02.306Z,92.90
2022-11-20T03:22:47.841Z,92.90
2022-11-20T03:25:21.092Z,93.00
2022-11-20T03:27:59.076Z,93.00
2022-11-20T03:33:36.724Z,93.00
2022-11-20T03:36:08.677Z,93.00
2022-11-20T03:39:02.454Z,93.00
2022-11-20T03:41:36.213Z,93.00
2022-11-20T03:44:28.290Z,93.00
2022-11-20T03:47:07.778Z,93.00
2022-11-20T03:49:59.608Z,93.20
2022-11-20T03:52:45.294Z,93.10
2022-11-20T03:55:55.593Z,93.10
2022-11-20T03:58:44.386Z,93.10
2022-11-20T04:04:47.310Z,93.10
2022-11-20T04:07:46.660Z,93.20
2022-11-20T04:10:42.234Z,93.20
2022-11-20T04:20:51.444Z,93.20
2022-11-20T04:23:54.429Z,93.20
2022-11-20T04:27:18.853Z,93.20
2022-11-20T04:31:03.501Z,93.20
2022-11-20T04:48:33.010Z,93.20
2022-11-20T04:54:39.438Z,93.20
2022-11-20T04:57:38.980Z,93.30
2022-11-20T05:00:21.193Z,93.30
2022-11-20T05:03:04.536Z,93.40
2022-11-20T05:06:11.035Z,93.40
2022-11-20T05:08:54.229Z,93.40
2022-11-20T05:11:40.599Z,93.40
2022-11-20T05:14:34.117Z,93.40
2022-11-20T05:18:48.907Z,93.40
2022-11-20T05:21:43.643Z,93.50
2022-11-20T05:24:31.443Z,93.40
2022-11-20T05:27:07.127Z,93.40
2022-11-20T05:33:39.324Z,93.50
2022-11-20T05:36:43.821Z,93.40
2022-11-20T05:39:13.602Z,93.40
2022-11-20T05:41:40.663Z,93.40
2022-11-20T05:44:18.032Z,93.40
2022-11-20T05:46:50.774Z,93.40
2022-11-20T05:49:36.243Z,93.50
2022-11-20T05:52:09.202Z,93.50
2022-11-20T05:54:37.357Z,93.60
2022-11-20T05:57:08.869Z,93.60
2022-11-20T05:59:39.156Z,93.50
2022-11-20T06:02:15.376Z,93.50
2022-11-20T06:04:46.098Z,93.60
2022-11-20T06:07:13.996Z,93.60
2022-11-20T06:09:44.486Z,93.60
2022-11-20T06:12:14.976Z,93.60
2022-11-20T06:14:45.397Z,93.60
2022-11-20T06:17:15.497Z,93.60
2022-11-20T06:19:45.500Z,93.60
2022-11-20T06:22:15.348Z,93.60
2022-11-20T06:24:42.788Z,93.60
2022-11-20T06:27:11.879Z,93.60
2022-11-20T06:29:46.828Z,93.60
2022-11-20T06:32:18.197Z,93.60
2022-11-20T06:34:54.846Z,93.60
2022-11-20T06:37:36.072Z,93.70
2022-11-20T06:40:03.464Z,93.70
2022-11-20T06:42:31.030Z,93.70
2022-11-20T06:45:01.300Z,93.70
2022-11-20T06:47:31.539Z,93.60
2022-11-20T06:50:04.670Z,93.60
2022-11-20T06:52:40.876Z,93.60
2022-11-20T06:55:14.196Z,93.60
2022-11-20T06:57:41.678Z,93.60
2022-11-20T07:00:14.722Z,93.70
2022-11-20T07:02:45.400Z,93.70
2022-11-20T07:05:13.462Z,93.70
2022-11-20T07:07:44.029Z,93.60
2022-11-20T07:10:20.183Z,93.60
2022-11-20T07:14:18.466Z,93.70
2022-11-20T07:17:18.800Z,93.60
2022-11-20T07:19:55.639Z,93.60
2022-11-20T07:25:38.029Z,93.60
2022-11-20T07:28:17.229Z,93.60
2022-11-20T07:30:56.563Z,93.60
2022-11-20T07:33:36.734Z,93.60
2022-11-20T07:36:21.230Z,93.60
2022-11-20T07:39:01.851Z,93.60
2022-11-20T07:41:35.823Z,93.60
2022-11-20T07:44:21.761Z,93.60
2022-11-20T07:46:58.569Z,93.60
2022-11-20T07:49:33.853Z,93.50
2022-11-20T07:52:30.595Z,93.50
2022-11-20T07:55:06.535Z,93.50
2022-11-20T07:57:35.061Z,93.50
2022-11-20T08:00:06.369Z,93.40
2022-11-20T08:02:42.377Z,93.50
2022-11-20T08:05:11.016Z,93.40
2022-11-20T08:07:43.025Z,93.50
2022-11-20T08:10:12.550Z,93.40
2022-11-20T08:13:09.617Z,93.40
2022-11-20T08:15:37.570Z,93.30
2022-11-20T08:18:29.922Z,93.30
2022-11-20T08:20:52.657Z,93.30
2022-11-20T08:23:19.558Z,93.30
2022-11-20T08:25:50.840Z,93.20
2022-11-20T08:28:21.250Z,93.20
2022-11-20T08:30:51.179Z,93.20
2022-11-20T08:33:19.286Z,93.20
2022-11-20T08:35:46.887Z,93.10
2022-11-20T08:38:14.342Z,93.10
2022-11-20T08:40:41.469Z,93.10
2022-11-20T08:43:08.340Z,93.00
2022-11-20T08:45:35.727Z,93.00
2022-11-20T08:48:03.518Z,93.00
2022-11-20T08:50:33.170Z,92.90
2022-11-20T08:53:05.006Z,92.90
2022-11-20T08:55:32.060Z,92.90
2022-11-20T08:57:59.098Z,92.90
2022-11-20T09:00:29.092Z,92.90
2022-11-20T09:02:56.061Z,92.90
2022-11-20T09:05:22.961Z,93.10
2022-11-20T09:07:49.981Z,92.80
2022-11-20T09:10:24.192Z,92.70
2022-11-20T09:12:56.383Z,92.60
2022-11-20T09:15:24.738Z,92.60
2022-11-20T09:18:01.924Z,92.50
2022-11-20T09:20:30.584Z,92.50
2022-11-20T09:22:58.702Z,92.50
2022-11-20T09:25:34.634Z,92.40
2022-11-20T09:28:01.716Z,92.40
2022-11-20T09:30:28.815Z,92.40
2022-11-20T09:32:55.939Z,92.30
2022-11-20T09:35:25.848Z,92.30
2022-11-20T09:37:52.794Z,92.30
2022-11-20T09:40:29.360Z,92.30
2022-11-20T09:43:18.338Z,92.20
2022-11-20T09:46:23.905Z,92.10
2022-11-20T09:49:12.761Z,92.10
2022-11-20T09:51:59.082Z,92.10
2022-11-20T09:54:38.769Z,92.10
2022-11-20T09:57:22.848Z,92.10
2022-11-20T10:00:06.711Z,92.20
2022-11-20T10:02:48.589Z,92.10
2022-11-20T10:05:23.799Z,92.10
2022-11-20T10:08:24.922Z,92.10
2022-11-20T10:11:12.991Z,92.10
2022-11-20T10:14:04.879Z,92.10
2022-11-20T10:16:45.180Z,92.10
2022-11-20T10:19:36.659Z,92.10
2022-11-20T10:22:28.538Z,92.10
2022-11-20T10:25:05.164Z,92.10
2022-11-20T10:28:03.334Z,92.00
2022-11-20T10:30:32.108Z,92.00
2022-11-20T10:33:06.414Z,92.00
2022-11-20T10:35:46.098Z,92.30
2022-11-20T10:38:39.730Z,92.10
2022-11-20T10:41:26.049Z,92.10
2022-11-20T10:44:13.057Z,92.10
2022-11-20T10:46:49.184Z,92.00
2022-11-20T10:49:19.329Z,92.00
2022-11-20T10:51:49.428Z,92.00
2022-11-20T10:54:28.397Z,92.00
2022-11-20T10:57:04.104Z,92.10
2022-11-20T10:59:45.459Z,92.00
2022-11-20T11:02:26.600Z,92.00
2022-11-20T11:04:54.895Z,92.00
2022-11-20T11:07:37.624Z,92.00
2022-11-20T11:10:18.589Z,92.10
2022-11-20T11:12:48.674Z,92.00
2022-11-20T11:15:39.929Z,92.00
2022-11-20T11:18:11.017Z,92.00
2022-11-20T11:20:38.640Z,92.00
2022-11-20T11:23:05.746Z,91.90
2022-11-20T11:25:37.424Z,91.90
2022-11-20T11:28:20.614Z,91.90
2022-11-20T11:30:51.914Z,91.90
2022-11-20T11:33:27.444Z,91.90
2022-11-20T11:36:19.294Z,91.90
2022-11-20T11:38:46.272Z,91.90
2022-11-20T11:41:18.628Z,91.90
2022-11-20T11:44:36.446Z,91.90
2022-11-20T11:47:06.066Z,91.90
2022-11-20T11:49:33.056Z,91.80
2022-11-20T11:52:09.147Z,91.80
2022-11-20T11:54:56.057Z,91.80
2022-11-20T11:57:38.510Z,91.80
2022-11-20T12:00:14.404Z,91.80
2022-11-20T12:02:44.124Z,91.90
2022-11-20T12:05:28.694Z,91.90
2022-11-20T12:08:12.355Z,91.90
2022-11-20T12:11:04.395Z,92.00
2022-11-20T12:13:57.005Z,92.00
2022-11-20T12:16:26.535Z,92.00
2022-11-20T12:18:54.175Z,92.00
2022-11-20T12:21:32.183Z,92.10
2022-11-20T12:24:12.546Z,92.10
2022-11-20T12:27:10.397Z,92.10
2022-11-20T12:30:15.045Z,92.10
2022-11-20T12:32:42.023Z,92.10
2022-11-20T12:35:23.907Z,92.20
2022-11-20T12:38:12.611Z,92.20
2022-11-20T12:41:00.672Z,92.20
2022-11-20T12:43:57.138Z,92.20
2022-11-20T12:46:29.817Z,92.20
2022-11-20T12:49:05.448Z,92.20
2022-11-20T12:52:22.094Z,92.20
2022-11-20T12:55:14.675Z,92.20
2022-11-20T12:58:04.819Z,92.20
2022-11-20T13:00:35.379Z,92.10
2022-11-20T13:03:37.902Z,92.10
2022-11-20T13:06:16.725Z,92.20
2022-11-20T13:08:57.061Z,92.20
2022-11-20T13:11:42.599Z,92.20
2022-11-20T13:14:46.745Z,92.20
2022-11-20T13:17:32.528Z,92.30
2022-11-20T13:20:00.295Z,92.30
2022-11-20T13:22:43.846Z,92.40
2022-11-20T13:25:16.361Z,92.40
2022-11-20T13:27:50.117Z,92.40
2022-11-20T13:30:20.054Z,92.50
2022-11-20T13:32:57.632Z,92.50
2022-11-20T13:35:27.687Z,92.50
2022-11-20T13:38:20.937Z,92.50
2022-11-20T13:40:58.314Z,92.50
2022-11-20T13:43:43.418Z,92.50
2022-11-20T13:46:11.100Z,92.50
2022-11-20T13:48:47.057Z,92.60
2022-11-20T13:51:40.086Z,92.60
2022-11-20T13:54:34.344Z,92.70
2022-11-20T13:57:07.297Z,92.70
2022-11-20T13:59:34.407Z,92.70
2022-11-20T14:02:02.246Z,92.70
2022-11-20T14:04:36.358Z,92.70
2022-11-20T14:07:10.201Z,92.70
2022-11-20T14:09:37.226Z,92.80
2022-11-20T14:12:15.330Z,92.80
2022-11-20T14:14:51.218Z,92.90
2022-11-20T14:17:36.020Z,92.90
2022-11-20T14:20:07.211Z,93.00
2022-11-20T14:22:34.376Z,93.00
2022-11-20T14:25:19.256Z,93.00
2022-11-20T14:27:53.444Z,93.00
2022-11-20T14:30:26.113Z,93.10
2022-11-20T14:32:54.961Z,93.10
2022-11-20T14:35:35.405Z,93.20
2022-11-20T14:38:03.987Z,93.10
2022-11-20T14:40:33.886Z,93.30
2022-11-20T14:43:01.035Z,93.20
2022-11-20T14:45:28.761Z,93.50
2022-11-20T14:47:58.707Z,93.30
2022-11-20T14:50:28.335Z,93.30
2022-11-20T14:53:00.449Z,93.30
2022-11-20T14:55:39.551Z,93.30
2022-11-20T14:58:21.097Z,93.60
2022-11-20T15:00:59.866Z,93.40
2022-11-20T15:03:35.455Z,93.40
2022-11-20T15:06:06.888Z,93.40
2022-11-20T15:08:35.006Z,93.40
2022-11-20T15:11:02.311Z,93.40
2022-11-20T15:13:40.031Z,93.50
2022-11-20T15:16:20.510Z,93.50
2022-11-20T15:18:48.394Z,93.50
2022-11-20T15:21:18.030Z,93.50
2022-11-20T15:23:45.206Z,93.60
2022-11-20T15:26:19.521Z,93.60
2022-11-20T15:28:50.882Z,93.60
2022-11-20T15:31:21.735Z,93.60
2022-11-20T15:33:48.947Z,93.60
2022-11-20T15:36:15.881Z,93.60
2022-11-20T15:38:42.917Z,93.60
2022-11-20T15:41:10.042Z,93.70
2022-11-20T15:43:36.992Z,93.70
2022-11-20T15:46:12.120Z,93.70
2022-11-20T15:48:53.991Z,93.70
2022-11-20T15:51:43.884Z,93.80
2022-11-20T15:54:12.295Z,93.80
2022-11-20T15:56:39.703Z,93.80
2022-11-20T15:59:06.852Z,93.80
2022-11-20T16:01:34.120Z,93.80
2022-11-20T16:04:02.252Z,93.90
2022-11-20T16:06:29.202Z,93.90
2022-11-20T16:08:56.044Z,93.90
2022-11-20T16:11:23.070Z,93.90
2022-11-20T16:14:08.760Z,94.10
2022-11-20T16:16:38.786Z,93.90
2022-11-20T16:19:06.113Z,93.90
2022-11-20T16:21:33.306Z,93.90
2022-11-20T16:24:02.156Z,94.00
2022-11-20T16:26:29.904Z,94.00
2022-11-20T16:28:57.429Z,94.00
2022-11-20T16:31:24.495Z,94.00
2022-11-20T16:33:59.320Z,94.00
2022-11-20T16:36:28.493Z,94.10
2022-11-20T16:38:57.104Z,94.00
2022-11-20T16:41:28.853Z,94.10
2022-11-20T16:43:58.259Z,94.10
2022-11-20T16:46:27.626Z,94.10
2022-11-20T16:48:56.972Z,94.10
2022-11-20T16:51:30.755Z,94.10
2022-11-20T16:54:00.795Z,94.10
2022-11-20T16:56:30.615Z,94.20
2022-11-20T16:58:59.715Z,94.20
2022-11-20T17:01:28.829Z,94.20
2022-11-20T17:03:58.504Z,94.20
2022-11-20T17:06:28.163Z,94.50
2022-11-20T17:08:56.755Z,94.20
2022-11-20T17:11:24.737Z,94.20
2022-11-20T17:13:54.603Z,94.30
2022-11-20T17:16:23.717Z,94.30
2022-11-20T17:18:50.980Z,94.30
2022-11-20T17:21:19.358Z,94.30
2022-11-20T17:23:47.441Z,94.30
2022-11-20T17:26:20.329Z,94.40
2022-11-20T17:28:52.902Z,94.40
2022-11-20T17:31:19.860Z,94.40
2022-11-20T17:33:47.648Z,94.40
2022-11-20T17:36:17.073Z,94.40
2022-11-20T17:38:44.556Z,94.50
2022-11-20T17:41:19.962Z,94.50
2022-11-20T17:43:47.098Z,94.50
2022-11-20T17:46:24.099Z,94.50
2022-11-20T17:48:51.732Z,94.50
2022-11-20T17:51:26.977Z,94.50
2022-11-20T17:53:57.416Z,94.50
2022-11-20T17:56:42.876Z,94.90
2022-11-20T17:59:18.907Z,94.60
2022-11-20T18:01:49.865Z,94.60
2022-11-20T18:04:47.921Z,94.60
2022-11-20T18:07:15.092Z,94.60
2022-11-20T18:09:42.203Z,94.60
2022-11-20T18:12:09.188Z,94.70
2022-11-20T18:14:43.782Z,95.00
2022-11-20T18:17:13.171Z,94.70
2022-11-20T18:20:07.285Z,94.70
2022-11-20T18:23:07.836Z,94.70
2022-11-20T18:25:34.887Z,94.70
2022-11-20T18:28:02.035Z,94.70
2022-11-20T18:30:29.048Z,94.70
2022-11-20T18:33:00.480Z,94.80
2022-11-20T18:35:30.920Z,94.80
2022-11-20T18:38:05.579Z,94.80
2022-11-20T18:40:45.655Z,94.80
2022-11-20T18:43:32.544Z,94.90
2022-11-20T18:46:04.307Z,94.90
2022-11-20T18:48:42.838Z,94.90
2022-11-20T18:51:16.314Z,94.90
2022-11-20T18:54:09.379Z,95.00
2022-11-20T18:56:36.411Z,95.00
2022-11-20T18:59:08.792Z,95.00
2022-11-20T19:01:49.114Z,94.90
2022-11-20T19:04:25.621Z,95.00
2022-11-20T19:06:56.282Z,95.00
2022-11-20T19:09:26.940Z,95.00
2022-11-20T19:11:54.240Z,95.10
2022-11-20T19:14:21.395Z,95.10
2022-11-20T19:16:48.557Z,95.10
2022-11-20T19:19:15.776Z,95.10
2022-11-20T19:21:42.817Z,95.10
2022-11-20T19:24:12.306Z,95.10
2022-11-20T19:26:39.762Z,95.10
2022-11-20T19:29:07.363Z,95.10
2022-11-20T19:31:34.799Z,95.10
2022-11-20T19:34:03.971Z,95.20
2022-11-20T19:36:39.143Z,95.20
2022-11-20T19:39:10.876Z,95.20
2022-11-20T19:41:40.037Z,95.20
2022-11-20T19:44:12.825Z,95.20
2022-11-20T19:47:14.072Z,95.20
2022-11-20T19:49:41.917Z,95.20
2022-11-20T19:52:11.570Z,95.20
2022-11-20T19:54:41.473Z,95.20
2022-11-20T19:57:08.480Z,95.20
2022-11-20T19:59:35.519Z,95.20
2022-11-20T20:02:03.614Z,95.20
2022-11-20T20:04:30.671Z,95.20
2022-11-20T20:06:57.625Z,95.20
2022-11-20T20:09:26.883Z,95.30
2022-11-20T20:11:54.742Z,95.30
2022-11-20T20:14:22.003Z,95.30
2022-11-20T20:16:49.937Z,95.40
2022-11-20T20:19:17.374Z,95.40
2022-11-20T20:21:44.672Z,95.40
2022-11-20T20:24:12.080Z,95.40
2022-11-20T20:26:39.027Z,95.40
2022-11-20T20:29:06.033Z,95.40
2022-11-20T20:31:33.782Z,95.50
2022-11-20T20:34:03.453Z,95.50
2022-11-20T20:36:33.945Z,95.50
2022-11-20T20:39:03.914Z,95.50
2022-11-20T20:41:31.242Z,95.50
2022-11-20T20:44:17.063Z,95.50
2022-11-20T20:46:44.009Z,95.50
2022-11-20T20:49:11.035Z,95.50
2022-11-20T20:51:39.842Z,95.50
2022-11-20T20:54:10.287Z,95.50
2022-11-20T20:56:38.431Z,95.50
2022-11-20T20:59:06.459Z,95.50
2022-11-20T21:01:33.655Z,95.50
2022-11-20T21:04:00.753Z,95.50
2022-11-20T21:06:27.827Z,95.50
2022-11-20T21:08:57.508Z,95.50
2022-11-20T21:11:24.909Z,95.50
2022-11-20T21:13:53.314Z,95.50
2022-11-20T21:16:24.689Z,95.50
2022-11-20T21:18:51.729Z,95.50
2022-11-20T21:21:40.000Z,95.50
2022-11-20T21:24:07.588Z,95.50
2022-11-20T21:26:34.718Z,95.50
2022-11-20T21:29:01.684Z,95.50
2022-11-20T21:31:30.123Z,95.50
2022-11-20T21:33:57.400Z,95.50
2022-11-20T21:36:29.179Z,95.50
2022-11-20T21:39:00.380Z,95.50
2022-11-20T21:41:32.346Z,95.50
2022-11-20T21:47:18.255Z,95.50
2022-11-20T21:49:46.860Z,95.50
2022-11-20T21:52:16.989Z,95.50
2022-11-20T21:54:44.220Z,95.50
2022-11-20T21:57:11.405Z,95.50
2022-11-20T21:59:38.711Z,95.50
2022-11-20T22:02:05.900Z,95.50
2022-11-20T22:04:40.576Z,95.50
2022-11-20T22:07:08.238Z,95.50
2022-11-20T22:09:35.335Z,95.50
2022-11-20T22:12:02.309Z,95.50
2022-11-20T22:14:29.319Z,95.50
2022-11-20T22:16:58.670Z,95.50
2022-11-20T22:19:25.770Z,95.50
2022-11-20T22:21:52.932Z,95.50
2022-11-20T22:24:21.990Z,95.50
2022-11-20T22:26:50.139Z,95.50
2022-11-20T22:29:22.054Z,95.50
2022-11-20T22:31:59.192Z,95.50
2022-11-20T22:34:26.542Z,95.50
2022-11-20T22:36:56.463Z,95.50
2022-11-20T22:39:26.431Z,95.50
2022-11-20T22:41:56.538Z,95.50
2022-11-20T22:44:26.727Z,95.50
2022-11-20T22:46:55.882Z,95.50
2022-11-20T22:49:22.950Z,95.50
2022-11-20T22:51:50.000Z,95.50
2022-11-20T22:54:17.018Z,95.50
2022-11-20T22:56:45.070Z,95.50
2022-11-20T22:59:12.489Z,95.50
2022-11-20T23:01:39.772Z,95.50
2022-11-20T23:04:28.074Z,95.50
2022-11-20T23:06:57.171Z,95.50
2022-11-20T23:09:27.180Z,95.50
2022-11-20T23:12:03.423Z,95.50
2022-11-20T23:17:25.348Z,95.50
2022-11-20T23:20:08.418Z,95.50
2022-11-20T23:22:59.674Z,95.60
2022-11-20T23:25:31.855Z,95.60
2022-11-20T23:28:06.833Z,95.60
2022-11-20T23:30:33.918Z,95.60
2022-11-20T23:33:00.901Z,95.50
2022-11-20T23:35:27.842Z,95.50
2022-11-20T23:41:25.961Z,95.60
2022-11-20T23:44:39.493Z,95.60
2022-11-20T23:50:22.018Z,95.60
2022-11-20T23:53:08.321Z,95.60
2022-11-20T23:56:07.332Z,95.60
